LFJR 091030Z AUTO 13003KT 100V170 0900 0800 R26/1400U FG VV/// 05/05 Q1009 BECMG 9999 NSW BKN005

ElémentsDécodage
LFJR Station météo située sur l'aérodrome de ANGERS Marcé
091030Z émis le 09 du mois à 10h30 UTC
AUTO Bulletin édité par un automate
13003KT vent du 130°, 03 noeuds
100V170 vent de direction variable entre 100° et 170°
0900 visibilité horizontale de 900 mètres
0800 visibilité horizontale de 800 mètres
R26/1400U portée visuelle de piste
piste 26, 1400 mètres, en hausse
FG brouillard
VV/// Visibilité verticale non disponible, le ciel n'est pas visible
05/05 température 05°C, point de rosée 05°C
 soit une humidité relative de 100%
Q1009 la pression au niveau de la mer (QNH) est de 1009 hPa
BECMG fluctuation du temps prévue
9999 visibilité horizontale supérieure à 10 Km
NSW pas de temps significatif
BKN005 nuages morcelés (5/8 à 7/8) à 500 pieds